createdAt,value
2022-10-27T00:00:42.817Z,0.30
2022-10-27T00:03:14.965Z,0.40
2022-10-27T00:05:45.184Z,0.30
2022-10-27T00:08:16.259Z,0.30
2022-10-27T00:10:44.878Z,0.40
2022-10-27T00:13:13.345Z,0.38
2022-10-27T00:15:40.831Z,0.40
2022-10-27T00:18:08.988Z,0.32
2022-10-27T00:20:36.440Z,0.40
2022-10-27T00:23:05.238Z,0.30
2022-10-27T00:25:32.708Z,0.40
2022-10-27T00:28:00.186Z,0.32
2022-10-27T00:30:27.647Z,0.32
2022-10-27T00:32:55.104Z,0.40
2022-10-27T00:35:22.740Z,0.30
2022-10-27T00:37:50.416Z,0.40
2022-10-27T00:40:19.499Z,0.30
2022-10-27T00:42:46.945Z,0.40
2022-10-27T00:45:14.457Z,0.40
2022-10-27T00:47:41.968Z,0.30
2022-10-27T00:50:11.808Z,0.30
2022-10-27T00:52:41.974Z,0.35
2022-10-27T00:55:11.829Z,0.40
2022-10-27T00:57:41.476Z,0.32
2022-10-27T01:00:09.459Z,0.40
2022-10-27T01:02:37.311Z,0.40
2022-10-27T01:05:06.472Z,0.32
2022-10-27T01:07:33.927Z,0.30
2022-10-27T01:10:01.558Z,0.40
2022-10-27T01:12:28.993Z,0.40
2022-10-27T01:14:57.802Z,0.30
2022-10-27T01:17:38.992Z,0.40
2022-10-27T01:20:27.335Z,0.40
2022-10-27T01:22:59.338Z,0.40
2022-10-27T01:25:49.372Z,0.40
2022-10-27T01:28:35.571Z,0.30
2022-10-27T01:31:05.795Z,0.38
2022-10-27T01:33:37.444Z,0.30
2022-10-27T01:36:08.639Z,0.40
2022-10-27T01:38:41.255Z,0.30
2022-10-27T01:41:09.687Z,0.30
2022-10-27T01:43:37.520Z,0.40
2022-10-27T01:46:07.889Z,0.40
2022-10-27T01:48:35.606Z,0.40
2022-10-27T01:51:03.240Z,0.40
2022-10-27T01:53:31.932Z,0.40
2022-10-27T01:56:06.497Z,0.50
2022-10-27T01:58:51.845Z,0.30
2022-10-27T02:03:59.616Z,0.40
2022-10-27T02:06:31.782Z,0.30
2022-10-27T02:09:00.883Z,0.30
2022-10-27T02:11:28.621Z,0.40
2022-10-27T02:13:59.771Z,0.30
2022-10-27T02:16:29.242Z,0.30
2022-10-27T02:18:59.209Z,0.40
2022-10-27T02:21:26.783Z,0.30
2022-10-27T02:23:54.600Z,0.40
2022-10-27T02:26:25.260Z,0.40
2022-10-27T02:28:55.483Z,0.40
2022-10-27T02:31:24.247Z,0.38
2022-10-27T02:33:54.114Z,0.40
2022-10-27T02:36:21.847Z,0.40
2022-10-27T02:38:49.269Z,0.40
2022-10-27T02:41:16.702Z,0.40
2022-10-27T02:43:44.338Z,0.40
2022-10-27T02:46:11.776Z,0.40
2022-10-27T02:48:39.264Z,0.40
2022-10-27T02:51:08.213Z,0.50
2022-10-27T02:53:35.609Z,0.32
2022-10-27T02:56:03.076Z,0.30
2022-10-27T02:58:30.559Z,0.40
2022-10-27T03:00:58.202Z,0.30
2022-10-27T03:03:25.688Z,0.40
2022-10-27T03:05:53.203Z,0.40
2022-10-27T03:08:21.952Z,0.40
2022-10-27T03:10:49.401Z,0.38
2022-10-27T03:13:16.825Z,0.30
2022-10-27T03:15:44.850Z,0.30
2022-10-27T03:18:12.295Z,0.30
2022-10-27T03:20:39.996Z,0.40
2022-10-27T03:23:07.466Z,0.40
2022-10-27T03:25:41.425Z,0.30
2022-10-27T03:28:10.111Z,0.30
2022-10-27T03:30:37.594Z,0.40
2022-10-27T03:33:05.175Z,0.40
2022-10-27T03:35:33.081Z,0.40
2022-10-27T03:38:01.779Z,0.30
2022-10-27T03:40:29.670Z,0.30
2022-10-27T03:42:58.915Z,0.40
2022-10-27T03:45:27.082Z,0.30
2022-10-27T03:48:01.575Z,0.30
2022-10-27T03:50:29.177Z,0.40
2022-10-27T03:52:56.734Z,0.40
2022-10-27T03:55:24.371Z,0.30
2022-10-27T03:57:51.791Z,0.30
2022-10-27T04:00:20.920Z,0.40
2022-10-27T04:02:48.730Z,0.40
2022-10-27T04:05:18.568Z,0.38
2022-10-27T04:07:47.418Z,0.38
2022-10-27T04:10:15.073Z,0.30
2022-10-27T04:12:48.720Z,0.30
2022-10-27T04:15:16.595Z,0.35
2022-10-27T04:17:45.373Z,0.40
2022-10-27T04:20:13.211Z,0.40
2022-10-27T04:22:40.894Z,0.30
2022-10-27T04:25:08.658Z,0.40
2022-10-27T04:27:36.136Z,0.47
2022-10-27T04:30:03.683Z,0.43
2022-10-27T04:32:31.167Z,0.32
2022-10-27T04:34:59.982Z,0.45
2022-10-27T04:37:27.422Z,0.40
2022-10-27T04:39:54.871Z,0.50
2022-10-27T04:42:22.411Z,0.40
2022-10-27T04:44:49.934Z,0.40
2022-10-27T04:47:17.342Z,0.43
2022-10-27T04:49:44.784Z,0.30
2022-10-27T04:52:13.650Z,0.40
2022-10-27T04:54:41.078Z,0.30
2022-10-27T04:57:08.748Z,0.40
2022-10-27T04:59:36.296Z,0.40
2022-10-27T05:02:03.831Z,0.30
2022-10-27T05:04:31.386Z,0.32
2022-10-27T05:06:58.839Z,0.32
2022-10-27T05:09:27.604Z,0.40
2022-10-27T05:11:55.040Z,0.50
2022-10-27T05:14:22.522Z,0.47
2022-10-27T05:16:49.961Z,0.35
2022-10-27T05:19:17.505Z,0.40
2022-10-27T05:21:44.932Z,0.32
2022-10-27T05:24:12.401Z,0.40
2022-10-27T05:26:41.196Z,0.40
2022-10-27T05:29:09.192Z,0.40
2022-10-27T05:31:36.650Z,0.50
2022-10-27T05:34:04.107Z,0.30
2022-10-27T05:36:31.780Z,0.40
2022-10-27T05:38:59.229Z,0.35
2022-10-27T05:41:26.703Z,0.40
2022-10-27T05:43:55.516Z,0.38
2022-10-27T05:46:22.908Z,0.40
2022-10-27T05:48:50.457Z,0.40
2022-10-27T05:51:20.750Z,0.30
2022-10-27T05:53:50.544Z,0.35
2022-10-27T05:56:18.196Z,0.30
2022-10-27T05:58:45.708Z,0.40
2022-10-27T06:01:14.673Z,0.50
2022-10-27T06:03:42.189Z,0.47
2022-10-27T06:06:11.453Z,0.30
2022-10-27T06:08:38.999Z,0.35
2022-10-27T06:11:06.526Z,0.40
2022-10-27T06:13:33.990Z,0.35
2022-10-27T06:16:01.569Z,0.40
2022-10-27T06:18:30.372Z,0.50
2022-10-27T06:20:57.837Z,0.40
2022-10-27T06:23:25.370Z,0.30
2022-10-27T06:25:52.857Z,0.40
2022-10-27T06:28:22.466Z,0.40
2022-10-27T06:30:49.914Z,0.40
2022-10-27T06:33:17.377Z,0.32
2022-10-27T06:35:47.249Z,0.30
2022-10-27T06:38:16.760Z,0.30
2022-10-27T06:43:12.628Z,0.30
2022-10-27T06:45:40.696Z,0.30
2022-10-27T06:48:08.687Z,0.20
2022-10-27T06:50:36.219Z,0.25
2022-10-27T06:53:09.838Z,0.28
2022-10-27T06:55:37.459Z,0.20
2022-10-27T06:58:05.227Z,0.13
2022-10-27T07:00:32.747Z,0.10
2022-10-27T07:03:00.306Z,0.10
2022-10-27T07:05:27.839Z,0.10
2022-10-27T07:07:55.770Z,0.10
2022-10-27T07:10:24.827Z,0.10
2022-10-27T07:12:53.726Z,0.00
2022-10-27T07:15:21.543Z,0.10
2022-10-27T07:17:49.070Z,0.05
2022-10-27T07:20:16.779Z,0.00
2022-10-27T07:22:44.223Z,0.00
2022-10-27T07:25:11.715Z,0.00
2022-10-27T07:27:40.496Z,0.00
2022-10-27T07:30:08.497Z,0.10
2022-10-27T07:32:35.924Z,0.00
2022-10-27T07:35:03.369Z,0.00
2022-10-27T07:37:30.834Z,0.00
2022-10-27T07:39:58.244Z,0.00
2022-10-27T07:42:25.693Z,0.00
2022-10-27T07:44:54.514Z,0.10
2022-10-27T07:47:21.959Z,0.00
2022-10-27T07:49:49.351Z,0.00
2022-10-27T07:52:16.789Z,0.00
2022-10-27T07:54:44.179Z,0.00
2022-10-27T07:57:11.609Z,0.10
2022-10-27T07:59:39.156Z,0.00
2022-10-27T08:02:09.033Z,0.00
2022-10-27T08:04:36.616Z,0.00
2022-10-27T08:07:04.074Z,0.00
2022-10-27T08:09:31.590Z,0.00
2022-10-27T08:11:59.047Z,0.00
2022-10-27T08:14:28.098Z,0.00
2022-10-27T08:17:00.135Z,0.00
2022-10-27T08:19:31.597Z,0.00
2022-10-27T08:21:59.316Z,0.00
2022-10-27T08:24:26.941Z,0.00
2022-10-27T08:26:54.369Z,0.00
2022-10-27T08:29:21.782Z,0.00
2022-10-27T08:31:49.232Z,0.00
2022-10-27T08:36:50.373Z,0.00
2022-10-27T08:39:17.785Z,0.00
2022-10-27T08:41:48.038Z,0.00
2022-10-27T08:44:21.821Z,0.00
2022-10-27T08:46:50.833Z,0.00
2022-10-27T08:49:30.076Z,0.00
2022-10-27T08:52:02.185Z,0.00
2022-10-27T08:54:29.946Z,0.10
2022-10-27T08:56:58.871Z,0.10
2022-10-27T08:59:28.073Z,0.10
2022-10-27T09:01:58.773Z,0.20
2022-10-27T09:04:32.570Z,0.20
2022-10-27T09:07:09.169Z,0.30
2022-10-27T09:09:41.809Z,0.20
2022-10-27T09:12:15.428Z,0.20
2022-10-27T09:14:54.675Z,0.20
2022-10-27T09:17:24.267Z,0.20
2022-10-27T09:19:52.905Z,0.30
2022-10-27T09:22:22.091Z,0.30
2022-10-27T09:24:55.320Z,0.30
2022-10-27T09:27:22.951Z,0.25
2022-10-27T09:29:51.592Z,0.20
2022-10-27T09:32:21.249Z,0.20
2022-10-27T09:34:51.352Z,0.20
2022-10-27T09:37:19.511Z,0.30
2022-10-27T09:39:49.113Z,0.20
2022-10-27T09:42:17.229Z,0.20
2022-10-27T09:44:46.342Z,0.30
2022-10-27T09:47:13.794Z,0.30
2022-10-27T09:49:43.368Z,0.20
2022-10-27T09:52:12.346Z,0.25
2022-10-27T09:54:42.552Z,0.20
2022-10-27T09:57:13.037Z,0.30
2022-10-27T09:59:41.383Z,0.20
2022-10-27T10:02:23.275Z,0.30
2022-10-27T10:04:50.894Z,0.20
2022-10-27T10:07:30.742Z,0.20
2022-10-27T10:10:01.821Z,0.20
2022-10-27T10:12:30.639Z,0.20
2022-10-27T10:15:18.866Z,0.20
2022-10-27T10:17:52.610Z,0.20
2022-10-27T10:20:30.787Z,0.30
2022-10-27T10:22:58.474Z,0.20
2022-10-27T10:25:28.425Z,0.20
2022-10-27T10:28:01.568Z,0.30
2022-10-27T10:30:29.650Z,0.22
2022-10-27T10:32:57.905Z,0.30
2022-10-27T10:35:41.745Z,0.20
2022-10-27T10:38:25.822Z,0.20
2022-10-27T10:40:57.517Z,0.20
2022-10-27T10:43:26.373Z,0.20
2022-10-27T10:45:54.264Z,0.20
2022-10-27T10:48:27.563Z,0.20
2022-10-27T10:50:55.474Z,0.20
2022-10-27T10:53:29.120Z,0.20
2022-10-27T10:56:01.924Z,0.20
2022-10-27T10:58:31.787Z,0.20
2022-10-27T11:01:00.674Z,0.20
2022-10-27T11:03:30.937Z,0.20
2022-10-27T11:06:00.370Z,0.20
2022-10-27T11:08:38.029Z,0.30
2022-10-27T11:11:12.410Z,0.20
2022-10-27T11:13:42.747Z,0.20
2022-10-27T11:16:11.291Z,0.20
2022-10-27T11:18:46.489Z,0.20
2022-10-27T11:21:16.497Z,0.20
2022-10-27T11:23:45.831Z,0.20
2022-10-27T11:26:14.457Z,0.10
2022-10-27T11:28:49.203Z,0.30
2022-10-27T11:31:20.396Z,0.20
2022-10-27T11:33:52.727Z,0.20
2022-10-27T11:36:21.599Z,0.20
2022-10-27T11:38:55.632Z,0.20
2022-10-27T11:41:26.472Z,0.20
2022-10-27T11:44:04.691Z,0.10
2022-10-27T11:46:38.559Z,0.20
2022-10-27T11:49:11.071Z,0.20
2022-10-27T11:51:41.195Z,0.20
2022-10-27T11:54:08.716Z,0.20
2022-10-27T11:56:42.492Z,0.30
2022-10-27T11:59:19.820Z,0.20
2022-10-27T12:01:52.345Z,0.20
2022-10-27T12:04:23.836Z,0.30
2022-10-27T12:06:57.059Z,0.20
2022-10-27T12:09:30.422Z,0.20
2022-10-27T12:12:01.998Z,0.17
2022-10-27T12:14:35.566Z,0.20
2022-10-27T12:17:06.035Z,0.20
2022-10-27T12:19:36.392Z,0.20
2022-10-27T12:22:07.789Z,0.20
2022-10-27T12:24:36.368Z,0.20
2022-10-27T12:27:08.030Z,0.20
2022-10-27T12:29:37.596Z,0.20
2022-10-27T12:32:09.016Z,0.20
2022-10-27T12:34:39.402Z,0.20
2022-10-27T12:37:10.293Z,0.20
2022-10-27T12:39:41.857Z,0.20
2022-10-27T12:42:12.083Z,0.20
2022-10-27T12:44:48.317Z,0.20
2022-10-27T12:47:22.493Z,0.20
2022-10-27T12:49:55.675Z,0.20
2022-10-27T12:52:24.462Z,0.30
2022-10-27T12:54:59.491Z,0.20
2022-10-27T12:57:32.494Z,0.20
2022-10-27T13:00:04.071Z,0.30
2022-10-27T13:02:33.824Z,0.20
2022-10-27T13:05:22.277Z,0.20
2022-10-27T13:07:57.620Z,0.20
2022-10-27T13:10:33.646Z,0.20
2022-10-27T13:13:13.079Z,0.20
2022-10-27T13:15:51.788Z,0.20
2022-10-27T13:18:29.967Z,0.20
2022-10-27T13:21:01.958Z,0.20
2022-10-27T13:23:33.939Z,0.20
2022-10-27T13:26:11.127Z,0.20
2022-10-27T13:28:42.552Z,0.20
2022-10-27T13:31:15.596Z,0.20
2022-10-27T13:33:58.920Z,0.25
2022-10-27T13:37:11.622Z,0.20
2022-10-27T13:39:42.848Z,0.20
2022-10-27T13:42:17.844Z,0.20
2022-10-27T13:44:47.893Z,0.22
2022-10-27T13:47:20.810Z,0.20
2022-10-27T13:49:51.821Z,0.20
2022-10-27T13:52:20.731Z,0.20
2022-10-27T13:54:52.440Z,0.30
2022-10-27T13:57:37.892Z,0.20
2022-10-27T14:00:10.052Z,0.20
2022-10-27T14:02:45.620Z,0.20
2022-10-27T14:05:22.123Z,0.20
2022-10-27T14:07:49.847Z,0.20
2022-10-27T14:10:17.945Z,0.20
2022-10-27T14:12:45.453Z,0.20
2022-10-27T14:15:17.442Z,0.20
2022-10-27T14:17:48.090Z,0.20
2022-10-27T14:20:19.342Z,0.20
2022-10-27T14:22:48.658Z,0.20
2022-10-27T14:25:26.555Z,0.20
2022-10-27T14:28:19.348Z,0.30
2022-10-27T14:30:47.723Z,0.20
2022-10-27T14:33:24.071Z,0.20
2022-10-27T14:36:05.142Z,0.20
2022-10-27T14:38:32.683Z,0.20
2022-10-27T14:41:00.349Z,0.20
2022-10-27T14:43:28.027Z,0.20
2022-10-27T14:45:57.739Z,0.20
2022-10-27T14:48:29.267Z,0.20
2022-10-27T14:50:57.087Z,0.20
2022-10-27T14:53:26.861Z,0.20
2022-10-27T14:56:04.549Z,0.20
2022-10-27T14:58:32.144Z,0.20
2022-10-27T15:00:59.770Z,0.20
2022-10-27T15:03:34.921Z,0.20
2022-10-27T15:06:05.191Z,0.20
2022-10-27T15:08:35.162Z,0.20
2022-10-27T15:11:06.625Z,0.13
2022-10-27T15:13:34.729Z,0.20
2022-10-27T15:16:07.029Z,0.22
2022-10-27T15:18:37.362Z,0.20
2022-10-27T15:24:02.837Z,0.20
2022-10-27T15:26:31.442Z,0.20
2022-10-27T15:28:59.740Z,0.30
2022-10-27T15:31:27.562Z,0.20
2022-10-27T15:34:00.370Z,0.20
2022-10-27T15:36:28.118Z,0.20
2022-10-27T15:38:55.927Z,0.20
2022-10-27T15:41:24.554Z,0.30
2022-10-27T15:43:52.899Z,0.20
2022-10-27T15:46:27.979Z,0.20
2022-10-27T15:48:57.063Z,0.20
2022-10-27T15:51:27.543Z,0.30
2022-10-27T15:53:58.543Z,0.20
2022-10-27T15:56:41.875Z,0.30
2022-10-27T15:59:18.838Z,0.20
2022-10-27T16:01:47.112Z,0.20
2022-10-27T16:04:25.402Z,0.30
2022-10-27T16:07:14.367Z,0.22
2022-10-27T16:09:42.687Z,0.30
2022-10-27T16:12:12.935Z,0.25
2022-10-27T16:14:40.635Z,0.30
2022-10-27T16:17:10.093Z,0.20
2022-10-27T16:19:37.529Z,0.20
2022-10-27T16:22:14.110Z,0.20
2022-10-27T16:24:41.520Z,0.30
2022-10-27T16:27:11.148Z,0.30
2022-10-27T16:29:38.783Z,0.30
2022-10-27T16:32:06.293Z,0.20
2022-10-27T16:34:34.507Z,0.20
2022-10-27T16:37:02.019Z,0.20
2022-10-27T16:39:30.786Z,0.20
2022-10-27T16:41:58.352Z,0.30
2022-10-27T16:44:26.978Z,0.20
2022-10-27T16:46:54.421Z,0.30
2022-10-27T16:49:21.904Z,0.30
2022-10-27T16:51:51.007Z,0.20
2022-10-27T16:54:18.558Z,0.20
2022-10-27T16:56:47.538Z,0.30
2022-10-27T16:59:14.975Z,0.30
2022-10-27T17:01:42.559Z,0.30
2022-10-27T17:04:10.132Z,0.30
2022-10-27T17:06:37.589Z,0.30
2022-10-27T17:09:05.136Z,0.22
2022-10-27T17:11:32.551Z,0.30
2022-10-27T17:14:01.311Z,0.30
2022-10-27T17:16:28.853Z,0.30
2022-10-27T17:18:56.282Z,0.20
2022-10-27T17:21:23.782Z,0.30
2022-10-27T17:23:51.298Z,0.30
2022-10-27T17:26:18.730Z,0.30
2022-10-27T17:28:48.403Z,0.30
2022-10-27T17:31:20.976Z,0.20
2022-10-27T17:33:52.103Z,0.20
2022-10-27T17:36:19.652Z,0.30
2022-10-27T17:38:47.249Z,0.30
2022-10-27T17:41:14.709Z,0.30
2022-10-27T17:43:42.215Z,0.30
2022-10-27T17:46:11.857Z,0.30
2022-10-27T17:48:41.559Z,0.30
2022-10-27T17:51:09.937Z,0.20
2022-10-27T17:53:38.066Z,0.30
2022-10-27T17:56:06.512Z,0.30
2022-10-27T17:58:35.450Z,0.30
2022-10-27T18:01:04.585Z,0.20
2022-10-27T18:03:33.690Z,0.30
2022-10-27T18:06:02.731Z,0.30
2022-10-27T18:08:30.834Z,0.20
2022-10-27T18:11:02.752Z,0.30
2022-10-27T18:13:30.684Z,0.30
2022-10-27T18:15:58.183Z,0.30
2022-10-27T18:18:25.647Z,0.30
2022-10-27T18:20:53.058Z,0.30
2022-10-27T18:23:21.856Z,0.30
2022-10-27T18:25:49.340Z,0.30
2022-10-27T18:28:16.794Z,0.30
2022-10-27T18:30:44.236Z,0.30
2022-10-27T18:33:11.812Z,0.30
2022-10-27T18:35:39.334Z,0.20
2022-10-27T18:38:06.946Z,0.30
2022-10-27T18:40:36.748Z,0.25
2022-10-27T18:43:04.565Z,0.20
2022-10-27T18:45:32.232Z,0.30
2022-10-27T18:47:59.958Z,0.30
2022-10-27T18:50:27.472Z,0.30
2022-10-27T18:52:55.235Z,0.30
2022-10-27T18:55:23.007Z,0.20
2022-10-27T18:57:52.012Z,0.20
2022-10-27T19:00:19.920Z,0.30
2022-10-27T19:02:50.276Z,0.20
2022-10-27T19:05:17.803Z,0.30
2022-10-27T19:10:15.020Z,0.30
2022-10-27T19:12:42.458Z,0.30
2022-10-27T19:15:11.738Z,0.30
2022-10-27T19:17:39.209Z,0.30
2022-10-27T19:20:07.131Z,0.30
2022-10-27T19:22:34.544Z,0.30
2022-10-27T19:25:02.222Z,0.30
2022-10-27T19:27:29.723Z,0.30
2022-10-27T19:29:57.240Z,0.30
2022-10-27T19:32:26.032Z,0.30
2022-10-27T19:34:53.492Z,0.30
2022-10-27T19:37:20.979Z,0.30
2022-10-27T19:39:48.516Z,0.20
2022-10-27T19:42:16.035Z,0.30
2022-10-27T19:44:43.843Z,0.30
2022-10-27T19:47:11.446Z,0.30
2022-10-27T19:49:40.286Z,0.30
2022-10-27T19:52:07.738Z,0.30
2022-10-27T19:54:35.189Z,0.30
2022-10-27T19:57:02.658Z,0.30
2022-10-27T19:59:30.125Z,0.30
2022-10-27T20:01:58.712Z,0.30
2022-10-27T20:04:26.255Z,0.30
2022-10-27T20:06:55.122Z,0.30
2022-10-27T20:09:23.274Z,0.20
2022-10-27T20:11:50.821Z,0.30
2022-10-27T20:14:18.554Z,0.30
2022-10-27T20:16:46.665Z,0.30
2022-10-27T20:19:15.408Z,0.30
2022-10-27T20:21:42.930Z,0.30
2022-10-27T20:24:12.540Z,0.30
2022-10-27T20:26:40.707Z,0.30
2022-10-27T20:29:08.448Z,0.30
2022-10-27T20:31:36.447Z,0.30
2022-10-27T20:34:04.406Z,0.30
2022-10-27T20:36:32.287Z,0.30
2022-10-27T20:38:59.989Z,0.30
2022-10-27T20:41:28.764Z,0.30
2022-10-27T20:43:56.930Z,0.30
2022-10-27T20:46:24.870Z,0.30
2022-10-27T20:48:52.748Z,0.30
2022-10-27T20:51:20.746Z,0.30
2022-10-27T20:53:50.245Z,0.30
2022-10-27T20:56:19.004Z,0.30
2022-10-27T20:58:48.054Z,0.30
2022-10-27T21:01:16.070Z,0.30
2022-10-27T21:03:43.926Z,0.30
2022-10-27T21:06:11.379Z,0.30
2022-10-27T21:08:38.841Z,0.30
2022-10-27T21:11:06.597Z,0.30
2022-10-27T21:13:34.057Z,0.30
2022-10-27T21:16:02.900Z,0.30
2022-10-27T21:18:30.743Z,0.30
2022-10-27T21:20:58.244Z,0.30
2022-10-27T21:23:25.680Z,0.30
2022-10-27T21:25:53.224Z,0.30
2022-10-27T21:28:20.647Z,0.30
2022-10-27T21:30:48.114Z,0.30
2022-10-27T21:33:16.905Z,0.30
2022-10-27T21:35:48.942Z,0.30
2022-10-27T21:38:16.374Z,0.30
2022-10-27T21:40:43.826Z,0.30
2022-10-27T21:43:11.290Z,0.30
2022-10-27T21:45:38.800Z,0.30
2022-10-27T21:48:06.458Z,0.30
2022-10-27T21:50:35.311Z,0.20
2022-10-27T21:53:02.759Z,0.30
2022-10-27T21:55:30.244Z,0.40
2022-10-27T21:57:57.884Z,0.30
2022-10-27T22:00:25.352Z,0.20
2022-10-27T22:02:52.824Z,0.30
2022-10-27T22:05:20.293Z,0.30
2022-10-27T22:07:49.085Z,0.30
2022-10-27T22:10:16.669Z,0.30
2022-10-27T22:12:44.078Z,0.30
2022-10-27T22:15:11.721Z,0.30
2022-10-27T22:17:39.162Z,0.30
2022-10-27T22:20:06.991Z,0.30
2022-10-27T22:22:34.463Z,0.40
2022-10-27T22:25:03.293Z,0.30
2022-10-27T22:27:30.866Z,0.30
2022-10-27T22:29:58.394Z,0.30
2022-10-27T22:32:25.870Z,0.30
2022-10-27T22:34:53.433Z,0.30
2022-10-27T22:37:20.960Z,0.30
2022-10-27T22:39:48.394Z,0.30
2022-10-27T22:42:17.397Z,0.30
2022-10-27T22:44:44.814Z,0.30
2022-10-27T22:47:12.272Z,0.30
2022-10-27T22:49:39.947Z,0.30
2022-10-27T22:52:07.481Z,0.38
2022-10-27T22:54:34.905Z,0.32
2022-10-27T22:57:02.368Z,0.30
2022-10-27T22:59:31.157Z,0.30
2022-10-27T23:01:58.765Z,0.40
2022-10-27T23:04:26.310Z,0.30
2022-10-27T23:06:53.738Z,0.30
2022-10-27T23:09:22.140Z,0.40
2022-10-27T23:11:49.600Z,0.30
2022-10-27T23:14:17.664Z,0.30
2022-10-27T23:16:46.506Z,0.30
2022-10-27T23:19:14.365Z,0.30
2022-10-27T23:21:41.875Z,0.30
2022-10-27T23:24:09.661Z,0.30
2022-10-27T23:26:37.872Z,0.30
2022-10-27T23:29:06.175Z,0.30
2022-10-27T23:31:34.701Z,0.32
2022-10-27T23:34:04.441Z,0.40
2022-10-27T23:36:32.895Z,0.30
2022-10-27T23:39:00.947Z,0.30
2022-10-27T23:41:28.508Z,0.30
2022-10-27T23:43:56.714Z,0.30
2022-10-27T23:46:24.789Z,0.30
2022-10-27T23:48:52.945Z,0.40
2022-10-27T23:51:22.134Z,0.40
2022-10-27T23:53:49.827Z,0.30
2022-10-27T23:56:17.490Z,0.30
2022-10-27T23:58:45.483Z,0.30
